Time;durP1;ratioP1;P1;durP2;ratioP2;P2;SDS_P1;SDS_P2;PMS_P1;PMS_P2;Temp;Humidity;BMP_temperature;BMP_pressure;BME280_temperature;BME280_humidity;BME280_pressure;Samples;Min_cycle;Max_cycle;Signal;HPM_P1;HPM_P2
2021/07/27 00:02:15;;;;;;;3.03;2.92;;;21.60;58.90;;;;;;5015357;28;20041;-83
2021/07/27 00:04:41;;;;;;;3.65;3.45;;;21.60;59.00;;;;;;5054100;28;20036;-84
2021/07/27 00:07:07;;;;;;;3.25;3.05;;;21.60;59.10;;;;;;5034569;28;20040;-83
2021/07/27 00:09:33;;;;;;;3.75;3.35;;;21.60;59.10;;;;;;5037468;28;20025;-85
2021/07/27 00:12:00;;;;;;;3.55;3.28;;;21.50;59.20;;;;;;5036363;28;20025;-83
2021/07/27 00:14:26;;;;;;;3.72;3.42;;;21.50;59.20;;;;;;5032606;28;20033;-85
2021/07/27 00:16:52;;;;;;;2.92;2.78;;;21.50;59.30;;;;;;5037454;28;20030;-84
2021/07/27 00:19:18;;;;;;;3.22;3.03;;;21.50;59.30;;;;;;5036420;28;20056;-84
2021/07/27 00:21:44;;;;;;;3.38;3.17;;;21.50;59.40;;;;;;5036203;28;20030;-84
2021/07/27 00:24:10;;;;;;;3.40;3.20;;;21.40;59.40;;;;;;5036124;28;20478;-83
2021/07/27 00:26:36;;;;;;;3.15;3.03;;;21.40;59.40;;;;;;5032365;28;20053;-83
2021/07/27 00:29:03;;;;;;;2.90;2.80;;;21.40;59.50;;;;;;5033909;28;20037;-83
2021/07/27 00:31:29;;;;;;;3.45;3.25;;;21.40;59.60;;;;;;5043985;28;20049;-83
2021/07/27 00:33:55;;;;;;;3.15;2.95;;;21.40;59.60;;;;;;5038901;28;20045;-84
2021/07/27 00:36:21;;;;;;;3.65;3.30;;;21.30;59.70;;;;;;5056774;28;20032;-83
2021/07/27 00:38:47;;;;;;;2.80;2.70;;;21.30;59.70;;;;;;5055231;28;20033;-84
2021/07/27 00:41:14;;;;;;;2.67;2.58;;;21.30;59.80;;;;;;5052515;28;20061;-84
2021/07/27 00:43:40;;;;;;;2.95;2.75;;;21.30;59.80;;;;;;5056300;28;20052;-84
2021/07/27 00:46:06;;;;;;;4.70;3.45;;;21.30;59.90;;;;;;5054748;28;20056;-85
2021/07/27 00:48:32;;;;;;;3.65;3.35;;;21.30;60.00;;;;;;5022649;28;20036;-84
2021/07/27 00:50:58;;;;;;;3.20;3.00;;;21.20;59.90;;;;;;5054800;28;20032;-84
2021/07/27 00:53:24;;;;;;;3.58;3.28;;;21.20;60.00;;;;;;5052563;28;20045;-84
2021/07/27 00:55:51;;;;;;;3.28;3.08;;;21.20;60.10;;;;;;5040288;28;20470;-83
2021/07/27 00:58:17;;;;;;;3.33;3.13;;;21.20;60.20;;;;;;5037155;28;20045;-84
2021/07/27 01:00:44;;;;;;;4.05;3.33;;;21.20;60.30;;;;;;5038294;28;20058;-84
2021/07/27 01:03:10;;;;;;;3.42;3.22;;;21.20;60.30;;;;;;5038312;28;20397;-84
2021/07/27 01:05:36;;;;;;;5.93;3.70;;;21.20;60.40;;;;;;5053758;28;20059;-84
2021/07/27 01:08:03;;;;;;;3.47;3.28;;;21.10;60.30;;;;;;5037138;28;20497;-83
2021/07/27 01:10:29;;;;;;;3.10;2.92;;;21.10;60.40;;;;;;5048305;28;20040;-84
2021/07/27 01:12:55;;;;;;;3.33;3.13;;;21.10;60.50;;;;;;5059004;28;20037;-84
2021/07/27 01:15:23;;;;;;;3.30;3.10;;;21.10;60.50;;;;;;5055769;28;20017;-83
2021/07/27 01:17:50;;;;;;;3.33;3.13;;;21.10;60.60;;;;;;5021316;28;20503;-85
2021/07/27 01:20:26;;;;;;;7.15;3.25;;;21.10;60.60;;;;;;5051608;28;20025;-85
2021/07/27 01:42:11;;;;;;;3.50;3.30;;;21.00;61.00;;;;;;5040047;28;20043;-84
2021/07/27 01:44:45;;;;;;;3.47;3.28;;;21.00;61.00;;;;;;5038668;28;20028;-84
2021/07/27 01:47:14;;;;;;;3.55;3.33;;;21.00;61.10;;;;;;5017093;28;20414;-84
2021/07/27 01:49:41;;;;;;;4.07;3.78;;;20.90;61.10;;;;;;5057548;28;20025;-83
2021/07/27 01:52:10;;;;;;;3.53;3.33;;;20.90;61.10;;;;;;5055061;28;20044;-85
2021/07/27 01:54:52;;;;;;;4.32;3.92;;;21.00;61.20;;;;;;5021852;28;20040;-85
2021/07/27 01:57:18;;;;;;;3.45;3.25;;;21.00;61.30;;;;;;5057651;28;20041;-84
2021/07/27 01:59:47;;;;;;;4.05;3.17;;;20.90;61.20;;;;;;5038047;28;20047;-84
2021/07/27 02:02:13;;;;;;;3.20;3.00;;;20.90;61.30;;;;;;5048722;28;20029;-77
2021/07/27 02:04:39;;;;;;;3.25;3.05;;;20.90;61.40;;;;;;5027067;28;20382;-82
2021/07/27 02:07:06;;;;;;;2.92;2.80;;;20.90;61.40;;;;;;5046191;28;20049;-84
2021/07/27 02:09:36;;;;;;;3.78;3.50;;;20.90;61.40;;;;;;5029797;28;20485;-84
2021/07/27 02:12:03;;;;;;;3.22;3.03;;;21.00;61.50;;;;;;5046837;28;20048;-84
2021/07/27 02:15:04;;;;;;;3.70;3.40;;;20.90;61.40;;;;;;5047407;28;20581;-84
2021/07/27 02:17:20;;;;;;;3.17;2.97;;;20.90;61.40;;;;;;5031337;28;20033;-84
2021/07/27 02:19:47;;;;;;;4.43;3.60;;;21.00;61.50;;;;;;5051072;28;20029;-83
2021/07/27 02:22:13;;;;;;;12.07;3.50;;;20.90;61.50;;;;;;5046822;28;20515;-84
2021/07/27 02:24:40;;;;;;;2.60;2.50;;;20.90;61.60;;;;;;5048629;28;20029;-83
2021/07/27 02:27:06;;;;;;;3.38;3.17;;;20.90;61.60;;;;;;5047135;28;20037;-84
2021/07/27 02:29:32;;;;;;;3.53;3.33;;;20.90;61.80;;;;;;5047458;28;20518;-83
2021/07/27 02:31:58;;;;;;;3.40;3.03;;;20.90;61.80;;;;;;5049183;28;20052;-83
2021/07/27 02:34:24;;;;;;;3.28;3.03;;;20.90;61.90;;;;;;5049327;28;20482;-84
2021/07/27 02:36:50;;;;;;;3.05;2.90;;;20.90;61.90;;;;;;5042619;28;20405;-85
2021/07/27 02:39:16;;;;;;;3.05;2.85;;;20.90;62.00;;;;;;5045159;28;20036;-84
2021/07/27 02:41:42;;;;;;;3.40;3.20;;;20.80;62.00;;;;;;5051747;28;20036;-83
2021/07/27 02:44:08;;;;;;;3.00;2.83;;;20.80;62.00;;;;;;5034006;28;20033;-84
2021/07/27 02:46:34;;;;;;;4.13;3.38;;;20.80;62.00;;;;;;5056395;28;20059;-82
2021/07/27 02:49:01;;;;;;;3.08;2.88;;;20.80;62.10;;;;;;5041719;28;20036;-83
2021/07/27 02:51:27;;;;;;;3.47;3.28;;;20.80;62.20;;;;;;5043194;28;20052;-84
2021/07/27 02:53:53;;;;;;;2.60;2.50;;;20.80;62.20;;;;;;5036003;28;20465;-84
2021/07/27 02:56:20;;;;;;;3.08;2.83;;;20.80;62.30;;;;;;5050286;28;20033;-84
2021/07/27 02:58:46;;;;;;;3.47;3.05;;;20.80;62.30;;;;;;5055978;28;20075;-86
2021/07/27 03:01:12;;;;;;;2.92;2.72;;;20.80;62.30;;;;;;5054164;28;20040;-84
2021/07/27 03:03:38;;;;;;;2.60;2.50;;;20.80;62.40;;;;;;5054561;28;20493;-84
2021/07/27 03:06:04;;;;;;;3.30;3.00;;;20.80;62.40;;;;;;5054047;28;20044;-83
2021/07/27 03:11:31;;;;;;;;;;;20.80;62.40;;;;;;4978288;28;20030;-84
2021/07/27 03:13:57;;;;;;;2.85;2.67;;;20.80;62.40;;;;;;4992565;28;19906;-84
2021/07/27 03:16:24;;;;;;;2.88;2.67;;;20.80;62.30;;;;;;4993890;28;20480;-84
2021/07/27 03:18:53;;;;;;;2.55;2.45;;;20.80;62.40;;;;;;4993792;28;20065;-84
2021/07/27 03:21:24;;;;;;;2.85;2.67;;;20.80;62.50;;;;;;4976650;28;20514;-84
2021/07/27 03:23:51;;;;;;;4.40;2.72;;;20.80;62.60;;;;;;4994130;28;20422;-84
2021/07/27 03:26:17;;;;;;;3.50;3.10;;;20.70;62.60;;;;;;4973469;28;20630;-85
2021/07/27 03:28:45;;;;;;;5.10;2.75;;;20.70;62.60;;;;;;4978939;28;20408;-84
2021/07/27 03:31:11;;;;;;;2.42;2.33;;;20.70;62.60;;;;;;4993752;28;20054;-84
2021/07/27 03:33:37;;;;;;;2.78;2.58;;;20.70;62.70;;;;;;4976489;28;20053;-83
2021/07/27 03:36:04;;;;;;;2.90;2.70;;;20.70;62.80;;;;;;5004024;28;20038;-84
2021/07/27 03:38:31;;;;;;;2.47;2.35;;;20.80;62.90;;;;;;4974262;28;20038;-84
2021/07/27 03:41:03;;;;;;;2.63;2.53;;;20.70;62.80;;;;;;4976255;28;20042;-84
2021/07/27 03:43:29;;;;;;;2.97;2.78;;;20.70;62.90;;;;;;4993846;28;20483;-84
2021/07/27 03:45:55;;;;;;;2.72;2.53;;;20.70;62.90;;;;;;5033014;28;20033;-84
2021/07/27 03:48:21;;;;;;;3.30;2.50;;;20.70;63.00;;;;;;5057375;28;20041;-85
2021/07/27 03:50:48;;;;;;;3.83;2.67;;;20.70;63.90;;;;;;5056930;28;20025;-85
2021/07/27 03:53:16;;;;;;;2.75;2.65;;;20.70;63.20;;;;;;5054151;28;20055;-85
2021/07/27 03:55:42;;;;;;;2.67;2.50;;;20.70;63.30;;;;;;5057166;28;20033;-85
2021/07/27 03:58:09;;;;;;;2.63;2.42;;;20.70;63.30;;;;;;5057595;28;20029;-85
2021/07/27 04:00:35;;;;;;;2.75;2.55;;;20.70;63.40;;;;;;5039418;28;20037;-85
2021/07/27 04:03:01;;;;;;;3.17;2.97;;;20.70;63.50;;;;;;5057212;28;20029;-84
2021/07/27 04:05:27;;;;;;;3.10;2.80;;;20.70;63.70;;;;;;5036115;28;20040;-84
2021/07/27 04:07:53;;;;;;;3.00;2.78;;;20.60;63.80;;;;;;5040519;28;20044;-84
2021/07/27 04:10:19;;;;;;;2.65;2.45;;;20.60;63.80;;;;;;5057936;28;20029;-84
2021/07/27 04:12:45;;;;;;;6.47;2.25;;;20.60;64.00;;;;;;5057316;28;20033;-85
2021/07/27 04:15:11;;;;;;;2.83;2.63;;;20.60;64.10;;;;;;5054581;28;20493;-84
2021/07/27 04:17:37;;;;;;;2.20;2.10;;;20.50;64.90;;;;;;5034105;28;20033;-85
2021/07/27 04:20:04;;;;;;;3.33;2.92;;;20.50;64.20;;;;;;5055445;28;20497;-85
2021/07/27 04:22:30;;;;;;;2.38;2.17;;;20.50;64.40;;;;;;5058329;28;20049;-84
2021/07/27 04:24:57;;;;;;;8.77;2.30;;;20.50;64.40;;;;;;5057163;28;20093;-85
2021/07/27 04:27:24;;;;;;;2.20;2.10;;;20.50;64.50;;;;;;5024254;28;20525;-84
2021/07/27 04:29:51;;;;;;;2.22;2.03;;;20.50;64.60;;;;;;5038368;28;20044;-84
2021/07/27 04:32:17;;;;;;;2.53;2.33;;;20.50;64.80;;;;;;5051069;28;20053;-85
2021/07/27 04:34:43;;;;;;;1.83;1.73;;;20.40;64.80;;;;;;5058238;28;20029;-84
2021/07/27 04:37:09;;;;;;;3.22;2.70;;;20.40;64.90;;;;;;5056982;28;20390;-84
2021/07/27 04:39:35;;;;;;;3.47;2.38;;;20.40;65.00;;;;;;5055538;28;20036;-85
2021/07/27 04:42:02;;;;;;;2.88;2.40;;;20.40;65.10;;;;;;5037050;28;20030;-84
2021/07/27 04:44:28;;;;;;;2.97;2.45;;;20.30;65.10;;;;;;5035614;28;20036;-84
2021/07/27 04:46:54;;;;;;;2.42;2.22;;;20.30;65.20;;;;;;5056399;28;20501;-84
2021/07/27 04:49:20;;;;;;;2.17;2.05;;;20.30;65.30;;;;;;5071401;28;20029;-84
2021/07/27 04:51:47;;;;;;;2.30;2.20;;;20.30;65.40;;;;;;5056866;28;20096;-84
2021/07/27 04:54:16;;;;;;;2.85;2.30;;;20.30;65.60;;;;;;5038583;28;20043;-83
2021/07/27 04:56:42;;;;;;;2.00;1.90;;;20.30;65.60;;;;;;5054127;28;20048;-84
2021/07/27 04:59:08;;;;;;;4.10;2.45;;;20.30;65.60;;;;;;5053087;28;20397;-85
2021/07/27 05:01:39;;;;;;;2.10;1.90;;;20.30;65.80;;;;;;5057511;28;20040;-85
2021/07/27 05:04:05;;;;;;;2.75;2.55;;;20.30;65.90;;;;;;5022379;28;20025;-84
2021/07/27 05:06:32;;;;;;;2.58;2.38;;;20.30;65.90;;;;;;5056257;28;20036;-85
2021/07/27 05:08:58;;;;;;;2.67;2.38;;;20.20;65.90;;;;;;5038703;28;20029;-84
2021/07/27 05:11:25;;;;;;;2.00;1.90;;;20.20;66.00;;;;;;5050795;28;20029;-84
2021/07/27 05:13:53;;;;;;;1.98;1.88;;;20.20;66.10;;;;;;5057835;28;20393;-86
2021/07/27 05:16:20;;;;;;;1.70;1.60;;;20.20;66.10;;;;;;5055463;28;20037;-85
2021/07/27 05:18:47;;;;;;;1.80;1.70;;;20.20;66.20;;;;;;5022102;28;20043;-82
2021/07/27 05:21:17;;;;;;;2.22;2.13;;;20.20;66.30;;;;;;5021877;28;20477;-84
2021/07/27 05:23:43;;;;;;;3.13;1.90;;;20.20;66.40;;;;;;5054604;28;20036;-85
2021/07/27 05:26:09;;;;;;;4.20;2.25;;;20.20;66.40;;;;;;5052969;28;20029;-85
2021/07/27 05:28:35;;;;;;;2.42;2.28;;;20.20;66.50;;;;;;5039989;28;20033;-84
2021/07/27 05:31:05;;;;;;;1.90;1.80;;;20.20;66.50;;;;;;5037173;28;20037;-85
2021/07/27 05:33:32;;;;;;;2.55;2.03;;;20.20;66.60;;;;;;5055818;28;20029;-84
2021/07/27 05:35:58;;;;;;;2.00;1.90;;;20.20;66.60;;;;;;5054765;28;20032;-85
2021/07/27 05:38:24;;;;;;;2.45;1.85;;;20.20;66.60;;;;;;5017415;28;20029;-85
2021/07/27 05:40:54;;;;;;;2.50;2.30;;;20.20;66.70;;;;;;5057169;28;20033;-84
2021/07/27 05:43:20;;;;;;;3.67;2.20;;;20.20;66.80;;;;;;5054325;28;20044;-84
2021/07/27 05:45:46;;;;;;;2.58;2.30;;;20.30;66.80;;;;;;5036993;28;20025;-85
2021/07/27 05:48:12;;;;;;;3.60;1.98;;;20.30;66.90;;;;;;5053414;28;20033;-84
2021/07/27 05:50:38;;;;;;;2.92;2.25;;;20.20;66.90;;;;;;5065429;28;20470;-85
2021/07/27 05:53:05;;;;;;;2.20;2.10;;;20.30;67.00;;;;;;5035705;28;20036;-84
2021/07/27 05:55:31;;;;;;;5.55;2.28;;;20.20;67.00;;;;;;5057040;28;20020;-85
2021/07/27 05:57:57;;;;;;;2.80;2.55;;;20.30;67.10;;;;;;5035721;28;20048;-87
2021/07/27 06:00:23;;;;;;;2.70;2.20;;;20.20;67.10;;;;;;5019444;28;20037;-84
2021/07/27 06:02:49;;;;;;;8.82;3.03;;;20.20;67.20;;;;;;5054560;28;20035;-84
2021/07/27 06:05:15;;;;;;;2.50;2.30;;;20.20;67.20;;;;;;5051713;28;20044;-85
2021/07/27 06:07:41;;;;;;;6.30;3.03;;;20.30;67.30;;;;;;5039144;28;20037;-85
2021/07/27 06:10:08;;;;;;;2.63;2.42;;;20.30;67.50;;;;;;5054593;28;20485;-83
2021/07/27 06:12:34;;;;;;;2.20;2.10;;;20.20;67.40;;;;;;5037586;28;20071;-84
2021/07/27 06:15:00;;;;;;;3.70;2.38;;;20.30;67.50;;;;;;5054085;28;20036;-85
2021/07/27 06:17:26;;;;;;;2.10;2.00;;;20.30;67.60;;;;;;5032995;28;20045;-85
2021/07/27 06:19:52;;;;;;;2.88;2.50;;;20.30;67.60;;;;;;5056347;28;20036;-84
2021/07/27 06:22:18;;;;;;;2.22;2.13;;;20.30;67.70;;;;;;5037236;28;20075;-84
2021/07/27 06:24:44;;;;;;;2.40;2.30;;;20.30;67.70;;;;;;5037239;28;20029;-84
2021/07/27 06:27:11;;;;;;;2.88;2.67;;;20.20;67.70;;;;;;5056903;28;20654;-85
2021/07/27 06:29:37;;;;;;;1.90;1.80;;;20.20;67.80;;;;;;5046859;28;20052;-85
2021/07/27 06:32:03;;;;;;;2.10;2.00;;;20.20;67.90;;;;;;5052326;28;20064;-85
2021/07/27 06:34:29;;;;;;;2.25;2.10;;;20.20;67.90;;;;;;5038244;28;20037;-84
2021/07/27 06:36:55;;;;;;;2.00;1.90;;;20.20;68.00;;;;;;4999461;28;20038;-84
2021/07/27 06:39:21;;;;;;;3.78;2.05;;;20.20;68.00;;;;;;5030078;28;20029;-83
2021/07/27 06:41:48;;;;;;;2.28;2.17;;;20.20;68.10;;;;;;5053651;28;20452;-84
2021/07/27 06:44:14;;;;;;;5.38;2.10;;;20.20;68.20;;;;;;5033110;28;20040;-85
2021/07/27 06:46:40;;;;;;;3.28;2.17;;;20.20;68.30;;;;;;5038327;28;20501;-85
2021/07/27 06:49:06;;;;;;;12.20;2.55;;;20.20;68.30;;;;;;5054798;28;20036;-83
2021/07/27 06:51:32;;;;;;;2.30;2.20;;;20.20;68.30;;;;;;5036994;28;20036;-85
2021/07/27 06:53:58;;;;;;;2.47;2.33;;;20.20;68.30;;;;;;5052575;28;20021;-83
2021/07/27 06:56:24;;;;;;;2.47;2.28;;;20.20;68.40;;;;;;5050346;28;20037;-85
2021/07/27 06:58:50;;;;;;;2.38;2.13;;;20.20;68.40;;;;;;5056242;28;20028;-86
2021/07/27 07:01:16;;;;;;;2.28;2.17;;;20.20;68.50;;;;;;5054119;28;20398;-86
2021/07/27 07:03:43;;;;;;;3.75;2.55;;;20.20;68.50;;;;;;5036672;28;20501;-85
2021/07/27 07:06:13;;;;;;;2.08;1.90;;;20.20;68.50;;;;;;5020091;28;20032;-87
2021/07/27 07:08:39;;;;;;;1.92;1.83;;;20.30;68.60;;;;;;5050421;28;20041;-84
2021/07/27 07:11:06;;;;;;;2.80;2.30;;;20.30;68.60;;;;;;5068309;28;20056;-84
2021/07/27 07:13:32;;;;;;;1.92;1.83;;;20.30;68.60;;;;;;5056357;28;20033;-84
2021/07/27 07:15:58;;;;;;;2.50;2.30;;;20.30;68.60;;;;;;5052521;28;20041;-85
2021/07/27 07:18:24;;;;;;;2.28;2.17;;;20.30;68.60;;;;;;5053621;28;20048;-84
2021/07/27 07:20:51;;;;;;;2.00;1.90;;;20.40;68.70;;;;;;5053836;28;20021;-85
2021/07/27 07:23:21;;;;;;;3.28;2.20;;;20.40;68.80;;;;;;5019442;28;20037;-86
2021/07/27 07:25:47;;;;;;;2.95;2.25;;;20.40;68.80;;;;;;5059225;28;20045;-85
2021/07/27 07:28:13;;;;;;;2.00;1.90;;;20.40;68.90;;;;;;5058128;28;20041;-84
2021/07/27 07:30:40;;;;;;;2.38;2.17;;;20.40;69.00;;;;;;5006289;28;20033;-84
2021/07/27 07:33:06;;;;;;;2.30;2.20;;;20.30;69.00;;;;;;5040294;28;20087;-86
2021/07/27 07:35:32;;;;;;;3.05;2.40;;;20.30;69.10;;;;;;5037187;28;20017;-84
2021/07/27 07:37:58;;;;;;;2.40;2.30;;;20.30;69.10;;;;;;5057826;28;20029;-85
2021/07/27 07:40:24;;;;;;;1.95;1.85;;;20.30;69.20;;;;;;5057399;28;20045;-87
2021/07/27 07:42:50;;;;;;;2.63;2.42;;;20.20;69.30;;;;;;5045900;28;20055;-87
2021/07/27 07:45:16;;;;;;;2.00;1.90;;;20.20;69.40;;;;;;5065728;28;20021;-84
2021/07/27 07:47:43;;;;;;;2.88;2.67;;;20.20;69.40;;;;;;5054022;28;20034;-84
2021/07/27 07:50:12;;;;;;;2.30;2.20;;;20.20;69.50;;;;;;5054401;28;20041;-85
2021/07/27 07:52:39;;;;;;;2.53;2.35;;;20.20;69.60;;;;;;5058989;28;20044;-84
2021/07/27 07:55:05;;;;;;;2.55;1.90;;;20.20;69.60;;;;;;5021865;28;20043;-84
2021/07/27 07:57:32;;;;;;;2.60;2.40;;;20.20;69.70;;;;;;5024186;28;20028;-84
2021/07/27 08:00:00;;;;;;;5.90;2.10;;;20.20;69.80;;;;;;5031736;28;20047;-84
2021/07/27 08:02:29;;;;;;;3.67;2.65;;;20.10;69.90;;;;;;5068802;28;20033;-85
2021/07/27 08:04:56;;;;;;;2.10;2.00;;;20.10;69.90;;;;;;5057906;28;20506;-84
2021/07/27 08:07:22;;;;;;;2.13;2.03;;;20.10;69.90;;;;;;5058034;28;20037;-85
2021/07/27 08:09:48;;;;;;;2.83;2.10;;;20.10;69.90;;;;;;5057242;28;20033;-85
2021/07/27 08:12:15;;;;;;;3.22;2.60;;;20.10;69.90;;;;;;5041319;28;20024;-85
2021/07/27 08:14:43;;;;;;;2.08;1.98;;;20.10;70.00;;;;;;5066427;28;20028;-85
2021/07/27 08:17:12;;;;;;;2.38;1.90;;;20.20;70.10;;;;;;5068415;28;20037;-86
2021/07/27 08:19:39;;;;;;;2.25;2.00;;;20.10;70.00;;;;;;5073768;28;20036;-85
2021/07/27 08:22:06;;;;;;;2.63;2.42;;;20.20;70.10;;;;;;5039801;28;20025;-86
2021/07/27 08:24:33;;;;;;;1.88;1.77;;;20.20;70.10;;;;;;5056500;28;20401;-84
2021/07/27 08:27:07;;;;;;;1.83;1.73;;;20.20;70.00;;;;;;5008629;28;20033;-85
2021/07/27 08:29:37;;;;;;;2.35;2.15;;;20.20;70.10;;;;;;5036640;28;20049;-86
2021/07/27 08:32:10;;;;;;;3.97;2.47;;;20.30;70.20;;;;;;5055239;28;20049;-84
2021/07/27 08:34:41;;;;;;;2.30;2.08;;;20.30;70.20;;;;;;5040804;28;20429;-85
2021/07/27 08:37:08;;;;;;;2.05;1.95;;;20.30;70.20;;;;;;5038964;28;20037;-85
2021/07/27 08:39:34;;;;;;;2.13;2.03;;;20.30;70.20;;;;;;5056797;28;20393;-85
2021/07/27 08:42:02;;;;;;;2.67;2.10;;;20.30;70.20;;;;;;5057705;28;20021;-85
2021/07/27 08:44:30;;;;;;;2.22;2.08;;;20.30;70.30;;;;;;5064762;28;20509;-83
2021/07/27 08:46:57;;;;;;;2.35;2.25;;;20.30;70.30;;;;;;5064894;28;20389;-85
2021/07/27 08:49:23;;;;;;;2.63;2.42;;;20.30;70.40;;;;;;5057618;28;20044;-84
2021/07/27 08:51:49;;;;;;;4.45;2.40;;;20.30;70.50;;;;;;5056482;28;20025;-85
2021/07/27 08:54:16;;;;;;;2.60;2.40;;;20.30;70.60;;;;;;5056366;28;20037;-84
2021/07/27 08:56:45;;;;;;;2.67;2.47;;;20.30;70.70;;;;;;5020610;28;20017;-84
2021/07/27 08:59:12;;;;;;;2.00;1.90;;;20.30;70.80;;;;;;5036091;28;20409;-84
2021/07/27 09:01:38;;;;;;;2.42;1.88;;;20.30;70.80;;;;;;5055515;28;20052;-86
2021/07/27 09:04:04;;;;;;;2.65;2.45;;;20.30;70.80;;;;;;5029696;28;20048;-84
2021/07/27 09:06:30;;;;;;;2.50;1.95;;;20.30;70.70;;;;;;5064662;28;20035;-87
2021/07/27 09:09:09;;;;;;;2.13;2.03;;;20.40;70.70;;;;;;5038188;28;20048;-86
2021/07/27 09:11:47;;;;;;;5.78;2.40;;;20.50;70.70;;;;;;5006038;28;20033;-85
2021/07/27 09:14:19;;;;;;;2.47;2.28;;;20.50;70.60;;;;;;5035292;28;20028;-85
2021/07/27 09:16:46;;;;;;;2.22;2.03;;;20.60;70.60;;;;;;5056239;28;20033;-85
2021/07/27 09:19:12;;;;;;;2.10;2.00;;;20.60;70.50;;;;;;5056152;28;20033;-85
2021/07/27 09:21:42;;;;;;;2.03;1.92;;;20.70;70.50;;;;;;5055692;28;20037;-84
2021/07/27 09:24:11;;;;;;;4.63;2.45;;;20.80;70.50;;;;;;5055439;28;20037;-85
2021/07/27 09:26:37;;;;;;;2.75;2.30;;;20.80;70.30;;;;;;5052978;28;20393;-85
2021/07/27 09:29:04;;;;;;;2.90;2.70;;;20.80;70.30;;;;;;5036881;28;20037;-86
2021/07/27 09:31:30;;;;;;;1.92;1.83;;;20.90;70.40;;;;;;5037220;28;20512;-86
2021/07/27 09:33:56;;;;;;;2.92;2.72;;;21.00;70.40;;;;;;5055987;28;20047;-85
2021/07/27 09:36:26;;;;;;;2.33;2.17;;;21.00;70.40;;;;;;5041443;28;20017;-86
2021/07/27 09:39:00;;;;;;;3.95;2.30;;;21.10;70.40;;;;;;5049099;28;20036;-85
2021/07/27 09:41:29;;;;;;;2.22;2.13;;;21.10;70.30;;;;;;5036275;28;20060;-86
2021/07/27 09:43:58;;;;;;;3.63;2.42;;;21.10;70.30;;;;;;5055337;28;20044;-85
2021/07/27 09:46:27;;;;;;;3.08;2.35;;;21.10;70.40;;;;;;5054624;28;20037;-84
2021/07/27 09:48:53;;;;;;;2.30;2.20;;;21.10;70.40;;;;;;5054528;28;20048;-85
2021/07/27 09:51:20;;;;;;;2.30;2.20;;;21.10;70.50;;;;;;5053870;28;20032;-85
2021/07/27 09:53:47;;;;;;;2.13;2.03;;;21.10;70.50;;;;;;5036621;28;20040;-85
2021/07/27 09:56:13;;;;;;;2.20;2.10;;;21.10;70.50;;;;;;5068592;28;20037;-86
2021/07/27 09:58:40;;;;;;;2.63;2.42;;;21.10;70.50;;;;;;5057472;28;20488;-83
2021/07/27 10:01:15;;;;;;;2.42;2.33;;;21.10;70.50;;;;;;5054863;28;20033;-85
2021/07/27 10:03:51;;;;;;;2.83;2.63;;;21.10;70.50;;;;;;5054207;28;20029;-85
2021/07/27 10:06:27;;;;;;;2.47;2.38;;;21.10;70.50;;;;;;5005025;28;20045;-85
2021/07/27 10:08:55;;;;;;;2.40;2.28;;;21.10;70.60;;;;;;5055174;28;20043;-86
2021/07/27 10:11:21;;;;;;;1.92;1.83;;;21.00;70.90;;;;;;5017102;28;20026;-85
2021/07/27 10:13:51;;;;;;;2.33;2.22;;;21.00;70.90;;;;;;5039778;28;20032;-86
2021/07/27 10:16:24;;;;;;;2.33;2.13;;;21.00;70.90;;;;;;5020778;28;20037;-86
2021/07/27 10:18:50;;;;;;;2.42;2.22;;;21.00;70.90;;;;;;5054259;28;20036;-85
2021/07/27 10:21:26;;;;;;;1.80;1.70;;;21.00;70.90;;;;;;5054925;28;20032;-85
2021/07/27 10:23:53;;;;;;;4.55;2.50;;;21.00;70.90;;;;;;5036844;28;20033;-84
2021/07/27 10:26:32;;;;;;;5.13;2.72;;;21.00;70.80;;;;;;5016663;28;20044;-85
2021/07/27 10:28:59;;;;;;;2.72;2.53;;;21.10;70.80;;;;;;5064350;28;20044;-84
2021/07/27 10:31:38;;;;;;;2.60;2.40;;;21.10;70.50;;;;;;5055341;28;20052;-84
2021/07/27 10:34:05;;;;;;;4.05;3.20;;;21.30;70.70;;;;;;5021526;28;20036;-85
2021/07/27 10:36:42;;;;;;;1.90;1.80;;;21.30;70.40;;;;;;5024313;28;20025;-86
2021/07/27 10:39:09;;;;;;;2.60;2.40;;;21.50;70.30;;;;;;5037145;28;20040;-83
2021/07/27 10:41:48;;;;;;;2.65;2.45;;;21.60;70.00;;;;;;5034553;28;20080;-85
2021/07/27 10:44:16;;;;;;;6.15;2.17;;;21.80;70.00;;;;;;5067485;28;20025;-85
2021/07/27 10:46:44;;;;;;;2.70;2.50;;;21.90;69.70;;;;;;5037728;28;20029;-85
2021/07/27 10:49:25;;;;;;;2.47;2.38;;;22.00;69.60;;;;;;5021106;28;20510;-84
2021/07/27 10:51:58;;;;;;;2.75;2.17;;;22.10;69.40;;;;;;5037340;28;20044;-85
2021/07/27 10:54:27;;;;;;;2.20;2.10;;;22.30;69.20;;;;;;5036831;28;20029;-85
2021/07/27 10:56:57;;;;;;;2.78;2.58;;;22.30;69.00;;;;;;5057592;28;20032;-85
2021/07/27 10:59:24;;;;;;;1.90;1.80;;;22.40;69.00;;;;;;5038834;28;20044;-85
2021/07/27 11:01:52;;;;;;;6.30;2.35;;;22.40;69.00;;;;;;5067518;28;20033;-84
2021/07/27 11:04:21;;;;;;;6.95;2.50;;;22.40;69.10;;;;;;5041227;28;20025;-84
2021/07/27 11:06:47;;;;;;;2.10;2.00;;;22.40;69.10;;;;;;5057928;28;20044;-86
2021/07/27 11:09:13;;;;;;;3.05;2.85;;;22.40;69.10;;;;;;5056739;28;20051;-85
2021/07/27 11:11:46;;;;;;;2.28;2.17;;;22.50;69.20;;;;;;5056606;28;20477;-85
2021/07/27 11:14:22;;;;;;;2.60;2.40;;;22.50;69.20;;;;;;5037766;28;20477;-85
2021/07/27 11:16:48;;;;;;;2.25;2.15;;;22.60;69.20;;;;;;5041482;28;20048;-85
2021/07/27 11:19:25;;;;;;;2.88;2.58;;;22.60;69.10;;;;;;5058292;28;20029;-86
2021/07/27 11:21:52;;;;;;;3.55;2.25;;;22.60;69.00;;;;;;5023907;28;20032;-86
2021/07/27 11:24:18;;;;;;;2.38;2.28;;;22.60;69.00;;;;;;5040726;28;20024;-83
2021/07/27 11:26:49;;;;;;;3.10;2.33;;;22.70;68.90;;;;;;5039030;28;20028;-85
2021/07/27 11:29:17;;;;;;;;;;;22.70;69.00;;;;;;5037222;28;20033;-86
2021/07/27 11:31:50;;;;;;;2.25;2.15;;;22.70;69.00;;;;;;5058783;28;20298;-86
2021/07/27 11:34:29;;;;;;;2.20;2.10;;;22.70;68.80;;;;;;5057631;28;20052;-86
2021/07/27 11:36:55;;;;;;;2.33;2.22;;;22.70;68.70;;;;;;5058017;28;20033;-85
2021/07/27 11:39:21;;;;;;;2.45;2.35;;;22.70;68.70;;;;;;5057378;28;20017;-85
2021/07/27 11:42:00;;;;;;;3.65;3.33;;;22.80;68.70;;;;;;5051336;28;20397;-85
2021/07/27 11:44:26;;;;;;;3.13;2.88;;;22.80;68.70;;;;;;5038742;28;20030;-86
2021/07/27 11:46:53;;;;;;;3.00;2.80;;;22.90;68.50;;;;;;5057886;28;20040;-84
2021/07/27 11:49:19;;;;;;;2.83;2.72;;;23.00;68.40;;;;;;5039596;28;20049;-85
2021/07/27 11:51:45;;;;;;;3.03;2.80;;;23.10;68.10;;;;;;5057986;28;20040;-86
2021/07/27 11:54:11;;;;;;;3.08;2.92;;;23.20;67.80;;;;;;5054942;28;20405;-85
2021/07/27 11:56:47;;;;;;;5.38;3.38;;;23.40;67.60;;;;;;5036623;28;20026;-79
2021/07/27 11:59:22;;;;;;;3.90;3.70;;;23.50;67.30;;;;;;5020234;28;20041;-85
2021/07/27 12:01:48;;;;;;;3.50;3.35;;;23.60;67.00;;;;;;5058828;28;20393;-85
2021/07/27 12:04:14;;;;;;;3.80;3.60;;;23.70;66.80;;;;;;5057552;28;20035;-85
2021/07/27 12:06:47;;;;;;;3.60;3.40;;;23.80;66.70;;;;;;5057155;28;20025;-85
2021/07/27 12:09:14;;;;;;;3.60;3.40;;;23.80;66.40;;;;;;5056814;28;20052;-85
2021/07/27 12:11:41;;;;;;;3.63;3.42;;;23.90;66.20;;;;;;5054623;28;20037;-85
2021/07/27 12:14:08;;;;;;;3.95;3.75;;;24.00;66.00;;;;;;5054172;28;20041;-84
2021/07/27 12:16:34;;;;;;;3.42;3.25;;;24.10;65.90;;;;;;5056377;28;20029;-87
2021/07/27 12:19:00;;;;;;;4.68;4.00;;;24.20;65.60;;;;;;5057230;28;20033;-85
2021/07/27 12:21:26;;;;;;;4.70;4.50;;;24.30;65.30;;;;;;5042580;28;20032;-86
2021/07/27 12:23:52;;;;;;;4.28;4.07;;;24.50;65.00;;;;;;5052177;28;20041;-85
2021/07/27 12:26:18;;;;;;;4.95;4.75;;;24.70;64.60;;;;;;5052197;28;20021;-87
2021/07/27 12:28:44;;;;;;;6.40;5.88;;;24.80;64.20;;;;;;5058690;28;20397;-86
2021/07/27 12:31:10;;;;;;;6.88;6.57;;;24.90;63.80;;;;;;5055941;28;20041;-85
2021/07/27 12:33:38;;;;;;;6.45;6.15;;;25.00;63.70;;;;;;5038937;28;20507;-85
2021/07/27 12:36:04;;;;;;;5.22;5.00;;;25.00;63.60;;;;;;5057835;28;20055;-85
2021/07/27 12:38:32;;;;;;;5.40;5.10;;;25.00;63.60;;;;;;5066291;28;20037;-85
2021/07/27 12:40:58;;;;;;;4.38;4.10;;;24.90;63.60;;;;;;5056327;28;20029;-85
2021/07/27 12:43:25;;;;;;;5.40;5.10;;;24.90;63.60;;;;;;5057840;28;20047;-85
2021/07/27 12:45:51;;;;;;;5.55;5.30;;;25.00;63.50;;;;;;5033845;28;20044;-87
2021/07/27 12:48:17;;;;;;;5.40;5.18;;;25.00;63.40;;;;;;5058474;28;20029;-85
2021/07/27 12:50:43;;;;;;;4.70;4.50;;;24.90;63.30;;;;;;5033919;28;20465;-85
2021/07/27 12:53:09;;;;;;;4.30;4.10;;;24.90;63.40;;;;;;5053739;28;20025;-85
2021/07/27 12:55:35;;;;;;;4.80;4.53;;;24.80;63.50;;;;;;5072669;28;20036;-86
2021/07/27 12:58:02;;;;;;;3.47;3.35;;;24.60;63.60;;;;;;5058845;28;20029;-85
2021/07/27 13:00:28;;;;;;;4.57;4.20;;;24.50;63.80;;;;;;5059020;28;20032;-87
2021/07/27 13:02:54;;;;;;;3.97;3.78;;;24.30;64.00;;;;;;5029059;28;20045;-86
2021/07/27 13:05:20;;;;;;;4.10;3.90;;;24.20;64.20;;;;;;5018406;28;20033;-85
2021/07/27 13:07:46;;;;;;;4.60;4.40;;;24.20;64.30;;;;;;5040658;28;20025;-86
2021/07/27 13:10:13;;;;;;;3.55;3.35;;;24.20;64.20;;;;;;5038306;28;20517;-86
2021/07/27 13:12:39;;;;;;;4.28;4.07;;;24.30;64.00;;;;;;5055988;28;20056;-86